createdAt,value
2023-04-16T00:06:18.778Z,99450.47
2023-04-16T00:16:21.414Z,99443.63
2023-04-16T00:26:24.076Z,99468.78
2023-04-16T00:36:27.946Z,99463.88
2023-04-16T00:46:31.357Z,99463.16
2023-04-16T00:56:35.722Z,99476.28
2023-04-16T01:06:38.486Z,99481.97
2023-04-16T01:16:41.036Z,99485.41
2023-04-16T01:26:43.627Z,99480.03
2023-04-16T01:36:46.157Z,99499.69
2023-04-16T01:46:48.930Z,99482.81
2023-04-16T01:56:51.450Z,99503.38
2023-04-16T02:06:53.957Z,99511.09
2023-04-16T02:16:56.659Z,99507.56
2023-04-16T02:27:12.421Z,99517.94
2023-04-16T02:37:16.037Z,99515.56
2023-04-16T02:47:19.018Z,99519.56
2023-04-16T02:57:21.525Z,99514.66
2023-04-16T03:07:24.214Z,99523.72
2023-04-16T03:17:26.700Z,99515.97
2023-04-16T03:27:29.266Z,99524.59
2023-04-16T03:37:32.057Z,99531.69
2023-04-16T03:47:34.894Z,99542.63
2023-04-16T03:57:39.417Z,99539.53
2023-04-16T04:07:46.490Z,99568.03
2023-04-16T04:17:50.396Z,99575.66
2023-04-16T04:27:53.425Z,99561.41
2023-04-16T04:37:56.303Z,99599.88
2023-04-16T04:47:58.957Z,99598.06
2023-04-16T04:58:01.581Z,99625.94
2023-04-16T05:08:04.914Z,99622.19
2023-04-16T05:18:07.420Z,99645.69
2023-04-16T05:28:10.604Z,99648.78
2023-04-16T05:38:13.215Z,99659.66
2023-04-16T05:48:15.810Z,99670.31
2023-04-16T05:58:18.461Z,99679.66
2023-04-16T06:08:21.152Z,99687.78
2023-04-16T06:18:23.810Z,99687.72
2023-04-16T06:28:26.414Z,99686.06
2023-04-16T06:38:28.997Z,99700.22
2023-04-16T06:48:31.819Z,99703.97
2023-04-16T06:58:34.339Z,99711.69
2023-04-16T07:08:36.841Z,99718.31
2023-04-16T07:18:39.598Z,99724.09
2023-04-16T07:28:42.329Z,99735.91
2023-04-16T07:38:44.989Z,99747.84
2023-04-16T07:48:47.768Z,99736.50
2023-04-16T07:58:50.378Z,99735.28
2023-04-16T08:08:52.940Z,99740.88
2023-04-16T08:18:55.758Z,99760.94
2023-04-16T08:28:58.668Z,99761.94
2023-04-16T08:39:01.191Z,99763.94
2023-04-16T08:49:08.637Z,99773.06
2023-04-16T08:59:11.557Z,99775.75
2023-04-16T09:09:16.292Z,99782.38
2023-04-16T09:19:18.818Z,99772.78
2023-04-16T09:29:38.797Z,99795.22
2023-04-16T09:39:41.855Z,99799.59
2023-04-16T09:49:44.927Z,99804.41
2023-04-16T09:59:48.410Z,99795.41
2023-04-16T10:09:52.685Z,99805.75
2023-04-16T10:19:56.146Z,99790.56
2023-04-16T10:29:59.684Z,99796.19
2023-04-16T10:40:22.634Z,99782.00
2023-04-16T10:50:25.550Z,99790.28
2023-04-16T11:00:29.266Z,99802.47
2023-04-16T11:10:39.444Z,99790.19
2023-04-16T11:20:42.008Z,99798.53
2023-04-16T11:30:45.053Z,99805.09
2023-04-16T11:40:49.988Z,99810.97
2023-04-16T11:50:59.157Z,99794.19
2023-04-16T12:01:02.300Z,99783.91
2023-04-16T12:11:05.125Z,99779.97
2023-04-16T12:21:08.328Z,99767.09
2023-04-16T12:31:11.249Z,99761.41
2023-04-16T12:41:13.786Z,99752.00
2023-04-16T12:51:16.261Z,99759.19
2023-04-16T13:01:19.880Z,99750.97
2023-04-16T13:11:22.533Z,99746.56
2023-04-16T13:21:25.158Z,99735.53
2023-04-16T13:31:27.807Z,99733.84
2023-04-16T13:41:30.732Z,99722.66
2023-04-16T13:51:33.783Z,99733.50
2023-04-16T14:01:36.353Z,99718.09
2023-04-16T14:11:38.826Z,99730.22
2023-04-16T14:21:41.528Z,99729.03
2023-04-16T14:31:44.055Z,99730.78
2023-04-16T14:41:46.610Z,99744.38
2023-04-16T14:51:49.319Z,99749.13
2023-04-16T15:01:52.857Z,99751.28
2023-04-16T15:11:56.916Z,99748.28
2023-04-16T15:21:59.557Z,99743.16
2023-04-16T15:32:02.316Z,99744.09
2023-04-16T15:42:07.429Z,99751.09
2023-04-16T15:52:11.972Z,99746.81
2023-04-16T16:02:14.629Z,99749.72
2023-04-16T16:12:17.424Z,99754.78
2023-04-16T16:22:20.806Z,99749.69
2023-04-16T16:32:23.755Z,99744.97
2023-04-16T16:42:26.706Z,99746.13
2023-04-16T16:52:29.537Z,99744.31
2023-04-16T17:02:32.410Z,99757.59
2023-04-16T17:12:35.674Z,99768.41
2023-04-16T17:22:40.110Z,99767.06
2023-04-16T17:32:42.721Z,99761.56
2023-04-16T17:42:45.766Z,99777.22
2023-04-16T17:52:48.796Z,99786.22
2023-04-16T18:02:52.540Z,99778.38
2023-04-16T18:12:55.520Z,99789.16
2023-04-16T18:22:58.271Z,99791.63
2023-04-16T18:33:26.322Z,99789.34
2023-04-16T18:43:24.434Z,99804.94
2023-04-16T18:53:28.580Z,99794.44
2023-04-16T19:03:33.494Z,99812.75
2023-04-16T19:13:38.127Z,99809.34
2023-04-16T19:23:41.584Z,99810.22
2023-04-16T19:33:45.498Z,99813.78
2023-04-16T19:43:47.915Z,99814.91
2023-04-16T19:53:50.889Z,99821.03
2023-04-16T20:03:54.722Z,99819.75
2023-04-16T20:14:00.351Z,99824.22
2023-04-16T20:24:03.437Z,99816.06
2023-04-16T20:34:05.964Z,99811.22
2023-04-16T20:44:10.149Z,99808.91
2023-04-16T20:54:13.051Z,99802.03
2023-04-16T21:04:16.263Z,99801.91
2023-04-16T21:14:18.864Z,99778.59
2023-04-16T21:24:21.323Z,99781.72
2023-04-16T21:34:23.913Z,99773.50
2023-04-16T21:44:26.396Z,99783.44
2023-04-16T21:54:28.928Z,99775.78
2023-04-16T22:04:38.724Z,99778.41
2023-04-16T22:14:49.225Z,99771.13
2023-04-16T22:25:02.274Z,99762.66
2023-04-16T22:35:05.348Z,99752.63
2023-04-16T22:45:08.482Z,99731.84
2023-04-16T22:55:10.983Z,99735.97
2023-04-16T23:05:13.573Z,99743.19
2023-04-16T23:15:16.299Z,99741.41
2023-04-16T23:25:18.872Z,99732.97
2023-04-16T23:35:22.954Z,99721.63
2023-04-16T23:45:25.693Z,99710.94
2023-04-16T23:55:28.426Z,99705.56
